NY/NJ Local METAR Reports

 

KNYC - NYC/Central Park, NY, USA
Distance from Hoboken: NE 4mi, 7km
Updated: 11/12/2019 2:51am
Clear
Clear
 Wind from varies
Wind: varies 7 mph , 11 km/h
Temperature: 57°F , 14°C
Dew Point: 43°F , 6°C
Humidity: 59%
Barometer: 29.74 inHg , 1007.1 hPa
Clouds: Clear
Visibility: 10 miles , 16 km
2019/11/12 07:51 KNYC 120751Z VRB06KT 10SM CLR 14/06 A2974 RMK AO2 SLP061 T01390061 $
KEWR - Newark, NJ, USA
Distance from Hoboken: WSW 8mi, 13km
Updated: 11/12/2019 2:51am
Overcast
Overcast
 Wind from SSW
Wind: SSW 9 mph , 15 km/h
Temperature: 54°F , 12°C
Dew Point: 45°F , 7°C
Humidity: 72%
Barometer: 29.72 inHg , 1006.4 hPa
Clouds: Overcast
Visibility: 10 miles , 16 km
Cloud details: Mostly cloudy 15000 ft
Overcast 22000 ft
2019/11/12 07:51 KEWR 120751Z 21008KT 10SM BKN150 OVC220 12/07 A2972 RMK AO2 SLP063 T01220072 $
 
KLGA - NYC/La Guardia, NY, USA
Distance from Hoboken: ENE 8mi, 13km
Updated: 11/12/2019 2:51am
Overcast
Overcast
 Wind from S
Wind: S 8 mph , 13 km/h
Temperature: 57°F , 14°C
Dew Point: 45°F , 7°C
Humidity: 63%
Barometer: 29.72 inHg , 1006.4 hPa
Clouds: Overcast
Visibility: 10 miles , 16 km
Cloud details: Mostly cloudy 15000 ft
Overcast 20000 ft
2019/11/12 07:51 KLGA 120751Z 19007KT 10SM BKN150 OVC200 14/07 A2972 RMK AO2 SLP063 T01390067 $
KTEB - Teterboro, NJ, USA
Distance from Hoboken: N 9mi, 14km
Updated: 11/12/2019 2:51am
Clear
Clear
 Wind from S
Wind: S 3 mph , 6 km/h
Temperature: 52°F , 11°C
Dew Point: 50°F , 10°C
Humidity: 94%
Barometer: 29.71 inHg , 1006.1 hPa
Clouds: Clear
Visibility: 10 miles , 16 km
2019/11/12 07:51 KTEB 120751Z 18003KT 10SM CLR 11/10 A2971 RMK AO2 SLP060 T01110100
 
KJFK - NYC/Jfk Arpt, NY, USA
Distance from Hoboken: ESE 16mi, 25km
Updated: 11/12/2019 2:51am
Overcast
Overcast
 Wind from SSW
Wind: SSW 12 mph , 19 km/h
Temperature: 55°F , 13°C
Dew Point: 50°F , 10°C
Humidity: 82%
Barometer: 29.74 inHg , 1007.1 hPa
Clouds: Overcast
Visibility: 10 miles , 16 km
Cloud details: Mostly cloudy 17000 ft
Overcast 25000 ft
2019/11/12 07:51 KJFK 120751Z 20010KT 10SM BKN170 OVC250 13/10 A2974 RMK AO2 SLP071 T01280100
KCDW - Caldwell, NJ, USA
Distance from Hoboken: NW 16mi, 26km
Updated: 11/12/2019 2:53am
Clear
Clear
 Wind from calm
Wind: Calm
Temperature: 46°F , 8°C
Dew Point: 43°F , 6°C
Humidity: 87%
Barometer: 29.72 inHg , 1006.4 hPa
Clouds: Clear
Visibility: 7 miles , 11 km
2019/11/12 07:53 KCDW 120753Z AUTO 00000KT 7SM CLR 08/06 A2972 RMK AO2 SLP069 T00780061
 
KMMU - Morristown Muni, NJ, USA
Distance from Hoboken: W 20mi, 33km
Updated: 11/12/2019 3:35am
Partly cloudy
Partly cloudy
 Wind from calm
Wind: Calm
Temperature: 41°F , 5°C
Dew Point: 41°F , 5°C
Humidity: 100%
Barometer: 29.70 inHg , 1005.8 hPa
Clouds: Partly cloudy
Visibility: 10 miles , 16 km
Cloud details: Partly cloudy 12000 ft
2019/11/12 08:35 KMMU 120835Z AUTO 00000KT 10SM SCT120 05/05 A2970 RMK AO2
KHPN - White Plains, NY, USA
Distance from Hoboken: NE 28mi, 46km
Updated: 11/12/2019 2:56am
Few Clouds
Few Clouds
 Wind from SSE
Wind: SSE 3 mph , 6 km/h
Temperature: 52°F , 11°C
Dew Point: 46°F , 8°C
Humidity: 82%
Barometer: 29.71 inHg , 1006.1 hPa
Clouds: Few Clouds
Visibility: 10 miles , 16 km
Cloud details: Few Clouds 12000 ft
2019/11/12 07:56 KHPN 120756Z 15003KT 10SM FEW120 11/08 A2971 RMK AO2 SLP062 T01060083
 
KFRG - Farmingdale, NY, USA
Distance from Hoboken: E 32mi, 52km
Updated: 11/12/2019 2:53am
Clear
Clear
 Wind from SSW
Wind: SSW 13 mph , 20 km/h
Temperature: 55°F , 13°C
Dew Point: 48°F , 9°C
Humidity: 77%
Barometer: 29.74 inHg , 1007.1 hPa
Clouds: Clear
Visibility: 10 miles , 16 km
2019/11/12 07:53 KFRG 120753Z AUTO 21011KT 10SM CLR 13/09 A2974 RMK AO2 SLP070 T01330089
KSMQ - Somerville, NJ, USA
Distance from Hoboken: WSW 34mi, 55km
Updated: 11/12/2019 2:53am
Clear
Clear
 Wind from calm
Wind: Calm
Temperature: 43°F , 6°C
Dew Point: 39°F , 4°C
Humidity: 87%
Barometer: 29.70 inHg , 1005.8 hPa
Clouds: Clear
Visibility: 10 miles , 16 km
2019/11/12 07:53 KSMQ 120753Z AUTO 00000KT 10SM CLR 06/04 A2970 RMK AO2 SLP058 T00560039 $
 
KBLM - Belmar/Farmdale, NJ, USA
Distance from Hoboken: S 40mi, 64km
Updated: 11/12/2019 2:56am
Clear
Clear
 Wind from SSW
Wind: SSW 10 mph , 17 km/h
Temperature: 57°F , 14°C
Dew Point: 41°F , 5°C
Humidity: 55%
Barometer: 29.74 inHg , 1007.1 hPa
Clouds: Clear
Visibility: 10 miles , 16 km
2019/11/12 07:56 KBLM 120756Z AUTO 20009KT 10SM CLR 14/05 A2974 RMK AO2 SLP069 T01390050
K12N - Andover, NJ, USA
Distance from Hoboken: WNW 41mi, 67km
Updated: 11/12/2019 2:54am

 Wind from calm
Wind: Calm
Temperature: 37°F , 3°C
Dew Point: 32°F , 0°C
Humidity: 81%
Barometer: 29.72 inHg , 1006.4 hPa
2019/11/12 07:54 K12N 120754Z AUTO 00000KT 03/00 A2972 RMK AO1 SLP065 T00330000
 
KFWN - Sussex, NJ, USA
Distance from Hoboken: NW 45mi, 72km
Updated: 11/12/2019 2:53am
Clear
Clear
 Wind from ESE
Wind: ESE 3 mph , 6 km/h
Temperature: 36°F , 2°C
Dew Point: 30°F , -1°C
Humidity: 81%
Barometer: 29.73 inHg , 1006.8 hPa
Clouds: Clear
Visibility: 10 miles , 16 km
2019/11/12 07:53 KFWN 120753Z AUTO 12003KT 10SM CLR 02/M01 A2973 RMK AO2 SLP069 T00221011 $
KISP - Islip, NY, USA
Distance from Hoboken: E 49mi, 79km
Updated: 11/12/2019 2:56am
Clear
Clear
 Wind from SSW
Wind: SSW 10 mph , 17 km/h
Temperature: 57°F , 14°C
Dew Point: 52°F , 11°C
Humidity: 82%
Barometer: 29.74 inHg , 1007.1 hPa
Clouds: Clear
Visibility: 10 miles , 16 km
2019/11/12 07:56 KISP 120756Z AUTO 21009KT 10SM CLR 14/11 A2974 RMK AO2 SLP069 T01390106